sensor_id;sensor_type;location;lat;lon;timestamp;temperature;humidity
1716;DHT22;855;48.824;9.220;2024-03-17T00:00:24;9.80;94.70
1716;DHT22;855;48.824;9.220;2024-03-17T00:02:50;9.70;94.60
1716;DHT22;855;48.824;9.220;2024-03-17T00:05:18;9.60;94.60
1716;DHT22;855;48.824;9.220;2024-03-17T00:07:44;9.70;94.60
1716;DHT22;855;48.824;9.220;2024-03-17T00:10:11;9.60;94.30
1716;DHT22;855;48.824;9.220;2024-03-17T00:12:37;9.60;94.40
1716;DHT22;855;48.824;9.220;2024-03-17T00:15:05;9.60;94.50
1716;DHT22;855;48.824;9.220;2024-03-17T00:17:32;9.50;94.50
1716;DHT22;855;48.824;9.220;2024-03-17T00:19:59;9.40;94.90
1716;DHT22;855;48.824;9.220;2024-03-17T00:22:30;9.40;95.10
1716;DHT22;855;48.824;9.220;2024-03-17T00:25:00;9.30;95.70
1716;DHT22;855;48.824;9.220;2024-03-17T00:27:26;9.40;95.50
1716;DHT22;855;48.824;9.220;2024-03-17T00:29:53;9.40;95.50
1716;DHT22;855;48.824;9.220;2024-03-17T00:32:19;9.40;95.50
1716;DHT22;855;48.824;9.220;2024-03-17T00:34:46;9.40;95.30
1716;DHT22;855;48.824;9.220;2024-03-17T00:37:13;9.30;95.50
1716;DHT22;855;48.824;9.220;2024-03-17T00:39:40;9.30;95.70
1716;DHT22;855;48.824;9.220;2024-03-17T00:42:07;9.30;95.80
1716;DHT22;855;48.824;9.220;2024-03-17T00:44:33;9.40;95.80
1716;DHT22;855;48.824;9.220;2024-03-17T00:47:00;9.30;95.70
1716;DHT22;855;48.824;9.220;2024-03-17T00:49:26;9.30;95.80
1716;DHT22;855;48.824;9.220;2024-03-17T00:51:53;9.30;95.70
1716;DHT22;855;48.824;9.220;2024-03-17T00:54:19;9.30;95.80
1716;DHT22;855;48.824;9.220;2024-03-17T00:56:47;9.30;95.70
1716;DHT22;855;48.824;9.220;2024-03-17T00:59:13;9.20;95.80
1716;DHT22;855;48.824;9.220;2024-03-17T01:01:40;9.00;95.70
1716;DHT22;855;48.824;9.220;2024-03-17T01:04:06;9.00;96.40
1716;DHT22;855;48.824;9.220;2024-03-17T01:06:33;9.10;96.50
1716;DHT22;855;48.824;9.220;2024-03-17T01:08:59;9.10;96.40
1716;DHT22;855;48.824;9.220;2024-03-17T01:11:26;9.10;96.50
1716;DHT22;855;48.824;9.220;2024-03-17T01:13:54;9.20;96.40
1716;DHT22;855;48.824;9.220;2024-03-17T01:16:21;9.20;96.20
1716;DHT22;855;48.824;9.220;2024-03-17T01:18:47;9.20;96.10
1716;DHT22;855;48.824;9.220;2024-03-17T01:21:14;9.10;96.00
1716;DHT22;855;48.824;9.220;2024-03-17T01:23:39;9.10;96.10
1716;DHT22;855;48.824;9.220;2024-03-17T01:26:06;9.10;96.30
1716;DHT22;855;48.824;9.220;2024-03-17T01:28:32;9.10;96.40
1716;DHT22;855;48.824;9.220;2024-03-17T01:31:00;9.10;96.30
1716;DHT22;855;48.824;9.220;2024-03-17T01:33:26;9.00;96.30
1716;DHT22;855;48.824;9.220;2024-03-17T01:35:53;9.00;96.50
1716;DHT22;855;48.824;9.220;2024-03-17T01:38:19;9.00;96.40
1716;DHT22;855;48.824;9.220;2024-03-17T01:40:46;8.90;96.70
1716;DHT22;855;48.824;9.220;2024-03-17T01:43:12;8.80;96.80
1716;DHT22;855;48.824;9.220;2024-03-17T01:45:39;8.80;96.90
1716;DHT22;855;48.824;9.220;2024-03-17T01:48:12;8.90;96.80
1716;DHT22;855;48.824;9.220;2024-03-17T01:50:40;9.00;96.60
1716;DHT22;855;48.824;9.220;2024-03-17T01:53:08;9.10;96.30
1716;DHT22;855;48.824;9.220;2024-03-17T01:55:37;9.00;96.20
1716;DHT22;855;48.824;9.220;2024-03-17T01:58:04;9.00;96.30
1716;DHT22;855;48.824;9.220;2024-03-17T02:00:32;9.10;96.20
1716;DHT22;855;48.824;9.220;2024-03-17T02:02:59;9.10;96.10
1716;DHT22;855;48.824;9.220;2024-03-17T02:05:28;9.00;96.00
1716;DHT22;855;48.824;9.220;2024-03-17T02:07:54;9.00;96.20
1716;DHT22;855;48.824;9.220;2024-03-17T02:10:21;8.90;96.30
1716;DHT22;855;48.824;9.220;2024-03-17T02:12:47;8.80;96.60
1716;DHT22;855;48.824;9.220;2024-03-17T02:15:14;8.70;96.70
1716;DHT22;855;48.824;9.220;2024-03-17T02:17:40;8.70;96.80
1716;DHT22;855;48.824;9.220;2024-03-17T02:20:07;8.60;97.00
1716;DHT22;855;48.824;9.220;2024-03-17T02:22:35;8.60;97.20
1716;DHT22;855;48.824;9.220;2024-03-17T02:25:01;8.60;97.50
1716;DHT22;855;48.824;9.220;2024-03-17T02:27:27;8.60;97.60
1716;DHT22;855;48.824;9.220;2024-03-17T02:29:54;8.50;97.60
1716;DHT22;855;48.824;9.220;2024-03-17T02:32:20;8.40;97.70
1716;DHT22;855;48.824;9.220;2024-03-17T02:34:48;8.30;97.90
1716;DHT22;855;48.824;9.220;2024-03-17T02:37:15;8.20;98.10
1716;DHT22;855;48.824;9.220;2024-03-17T02:39:42;8.10;98.30
1716;DHT22;855;48.824;9.220;2024-03-17T02:42:10;8.00;98.30
1716;DHT22;855;48.824;9.220;2024-03-17T02:44:37;8.10;98.50
1716;DHT22;855;48.824;9.220;2024-03-17T02:47:05;8.20;98.20
1716;DHT22;855;48.824;9.220;2024-03-17T02:49:34;8.10;98.10
1716;DHT22;855;48.824;9.220;2024-03-17T02:52:03;7.90;98.00
1716;DHT22;855;48.824;9.220;2024-03-17T02:54:31;7.90;98.30
1716;DHT22;855;48.824;9.220;2024-03-17T02:56:59;8.10;98.30
1716;DHT22;855;48.824;9.220;2024-03-17T02:59:26;8.10;98.20
1716;DHT22;855;48.824;9.220;2024-03-17T03:01:53;8.10;98.20
1716;DHT22;855;48.824;9.220;2024-03-17T03:04:20;8.10;98.40
1716;DHT22;855;48.824;9.220;2024-03-17T03:06:47;8.10;98.30
1716;DHT22;855;48.824;9.220;2024-03-17T03:09:14;8.20;98.10
1716;DHT22;855;48.824;9.220;2024-03-17T03:11:46;8.20;98.00
1716;DHT22;855;48.824;9.220;2024-03-17T03:14:14;8.20;97.80
1716;DHT22;855;48.824;9.220;2024-03-17T03:16:41;8.10;97.80
1716;DHT22;855;48.824;9.220;2024-03-17T03:19:09;8.00;97.70
1716;DHT22;855;48.824;9.220;2024-03-17T03:21:35;8.00;97.90
1716;DHT22;855;48.824;9.220;2024-03-17T03:24:02;8.00;97.80
1716;DHT22;855;48.824;9.220;2024-03-17T03:26:29;8.00;97.80
1716;DHT22;855;48.824;9.220;2024-03-17T03:28:56;8.00;97.80
1716;DHT22;855;48.824;9.220;2024-03-17T03:31:24;8.00;97.60
1716;DHT22;855;48.824;9.220;2024-03-17T03:33:51;7.90;97.60
1716;DHT22;855;48.824;9.220;2024-03-17T03:36:18;7.80;97.70
1716;DHT22;855;48.824;9.220;2024-03-17T03:38:46;7.70;98.00
1716;DHT22;855;48.824;9.220;2024-03-17T03:41:15;7.70;97.90
1716;DHT22;855;48.824;9.220;2024-03-17T03:43:42;7.70;97.90
1716;DHT22;855;48.824;9.220;2024-03-17T03:46:10;7.60;98.00
1716;DHT22;855;48.824;9.220;2024-03-17T03:48:38;7.50;98.10
1716;DHT22;855;48.824;9.220;2024-03-17T03:51:05;7.30;98.50
1716;DHT22;855;48.824;9.220;2024-03-17T03:53:32;7.30;98.90
1716;DHT22;855;48.824;9.220;2024-03-17T03:56:00;7.40;99.20
1716;DHT22;855;48.824;9.220;2024-03-17T03:58:31;7.40;99.20
1716;DHT22;855;48.824;9.220;2024-03-17T04:00:59;7.40;99.00
1716;DHT22;855;48.824;9.220;2024-03-17T04:03:27;7.30;99.00
1716;DHT22;855;48.824;9.220;2024-03-17T04:06:02;7.30;99.00
1716;DHT22;855;48.824;9.220;2024-03-17T04:08:30;7.20;99.20
1716;DHT22;855;48.824;9.220;2024-03-17T04:10:57;7.20;99.30
1716;DHT22;855;48.824;9.220;2024-03-17T04:13:24;7.20;99.30
1716;DHT22;855;48.824;9.220;2024-03-17T04:15:51;7.20;99.30
1716;DHT22;855;48.824;9.220;2024-03-17T04:18:22;7.30;99.40
1716;DHT22;855;48.824;9.220;2024-03-17T04:20:50;7.40;99.40
1716;DHT22;855;48.824;9.220;2024-03-17T04:23:19;7.40;99.20
1716;DHT22;855;48.824;9.220;2024-03-17T04:25:46;7.60;99.20
1716;DHT22;855;48.824;9.220;2024-03-17T04:28:13;7.60;99.00
1716;DHT22;855;48.824;9.220;2024-03-17T04:30:40;7.80;98.70
1716;DHT22;855;48.824;9.220;2024-03-17T04:33:08;7.80;98.50
1716;DHT22;855;48.824;9.220;2024-03-17T04:35:35;7.70;98.30
1716;DHT22;855;48.824;9.220;2024-03-17T04:38:03;7.80;98.40
1716;DHT22;855;48.824;9.220;2024-03-17T04:40:31;7.80;98.20
1716;DHT22;855;48.824;9.220;2024-03-17T04:42:58;7.70;98.10
1716;DHT22;855;48.824;9.220;2024-03-17T04:45:24;7.60;98.10
1716;DHT22;855;48.824;9.220;2024-03-17T04:47:51;7.50;98.10
1716;DHT22;855;48.824;9.220;2024-03-17T04:50:18;7.50;98.30
1716;DHT22;855;48.824;9.220;2024-03-17T04:52:46;7.60;98.30
1716;DHT22;855;48.824;9.220;2024-03-17T04:55:14;7.60;98.20
1716;DHT22;855;48.824;9.220;2024-03-17T04:57:43;7.60;98.00
1716;DHT22;855;48.824;9.220;2024-03-17T05:00:11;7.60;98.00
1716;DHT22;855;48.824;9.220;2024-03-17T05:02:39;7.50;98.10
1716;DHT22;855;48.824;9.220;2024-03-17T05:05:06;7.40;98.10
1716;DHT22;855;48.824;9.220;2024-03-17T05:07:33;7.40;98.30
1716;DHT22;855;48.824;9.220;2024-03-17T05:10:00;7.20;98.40
1716;DHT22;855;48.824;9.220;2024-03-17T05:12:27;7.10;98.70
1716;DHT22;855;48.824;9.220;2024-03-17T05:14:56;7.20;98.60
1716;DHT22;855;48.824;9.220;2024-03-17T05:17:23;7.20;98.60
1716;DHT22;855;48.824;9.220;2024-03-17T05:19:49;7.30;98.50
1716;DHT22;855;48.824;9.220;2024-03-17T05:22:16;7.30;98.20
1716;DHT22;855;48.824;9.220;2024-03-17T05:24:43;7.20;98.30
1716;DHT22;855;48.824;9.220;2024-03-17T05:27:10;7.20;98.30
1716;DHT22;855;48.824;9.220;2024-03-17T05:29:37;7.30;98.40
1716;DHT22;855;48.824;9.220;2024-03-17T05:32:06;7.20;98.30
1716;DHT22;855;48.824;9.220;2024-03-17T05:34:32;7.20;98.70
1716;DHT22;855;48.824;9.220;2024-03-17T05:36:59;7.30;99.20
1716;DHT22;855;48.824;9.220;2024-03-17T05:39:27;7.60;99.40
1716;DHT22;855;48.824;9.220;2024-03-17T05:41:54;7.70;99.40
1716;DHT22;855;48.824;9.220;2024-03-17T05:44:21;7.80;99.40
1716;DHT22;855;48.824;9.220;2024-03-17T05:46:47;7.80;99.40
1716;DHT22;855;48.824;9.220;2024-03-17T05:49:18;7.80;99.40
1716;DHT22;855;48.824;9.220;2024-03-17T05:51:46;7.90;99.40
1716;DHT22;855;48.824;9.220;2024-03-17T05:54:13;7.90;99.40
1716;DHT22;855;48.824;9.220;2024-03-17T05:56:40;7.90;99.00
1716;DHT22;855;48.824;9.220;2024-03-17T05:59:07;8.10;98.90
1716;DHT22;855;48.824;9.220;2024-03-17T06:01:33;8.30;98.90
1716;DHT22;855;48.824;9.220;2024-03-17T06:04:02;8.40;98.60
1716;DHT22;855;48.824;9.220;2024-03-17T06:06:31;8.50;98.30
1716;DHT22;855;48.824;9.220;2024-03-17T06:08:58;8.60;97.80
1716;DHT22;855;48.824;9.220;2024-03-17T06:11:25;8.70;97.60
1716;DHT22;855;48.824;9.220;2024-03-17T06:13:52;8.80;97.50
1716;DHT22;855;48.824;9.220;2024-03-17T06:16:19;8.90;97.20
1716;DHT22;855;48.824;9.220;2024-03-17T06:18:46;9.00;96.80
1716;DHT22;855;48.824;9.220;2024-03-17T06:21:16;8.90;96.20
1716;DHT22;855;48.824;9.220;2024-03-17T06:23:44;8.90;96.10
1716;DHT22;855;48.824;9.220;2024-03-17T06:26:12;8.90;95.30
1716;DHT22;855;48.824;9.220;2024-03-17T06:28:39;8.80;94.80
1716;DHT22;855;48.824;9.220;2024-03-17T06:31:07;8.50;94.40
1716;DHT22;855;48.824;9.220;2024-03-17T06:33:35;8.30;94.80
1716;DHT22;855;48.824;9.220;2024-03-17T06:36:02;8.30;95.30
1716;DHT22;855;48.824;9.220;2024-03-17T06:38:30;8.40;95.40
1716;DHT22;855;48.824;9.220;2024-03-17T06:40:58;8.50;95.40
1716;DHT22;855;48.824;9.220;2024-03-17T06:43:25;8.60;95.50
1716;DHT22;855;48.824;9.220;2024-03-17T06:45:55;8.60;95.30
1716;DHT22;855;48.824;9.220;2024-03-17T06:48:24;8.70;95.70
1716;DHT22;855;48.824;9.220;2024-03-17T06:50:51;8.90;95.60
1716;DHT22;855;48.824;9.220;2024-03-17T06:53:20;9.00;95.50
1716;DHT22;855;48.824;9.220;2024-03-17T06:55:52;9.00;95.30
1716;DHT22;855;48.824;9.220;2024-03-17T06:58:22;9.10;95.20
1716;DHT22;855;48.824;9.220;2024-03-17T07:00:55;9.20;94.80
1716;DHT22;855;48.824;9.220;2024-03-17T07:03:27;9.20;94.50
1716;DHT22;855;48.824;9.220;2024-03-17T07:05:55;9.20;94.50
1716;DHT22;855;48.824;9.220;2024-03-17T07:08:22;9.20;94.50
1716;DHT22;855;48.824;9.220;2024-03-17T07:10:59;9.30;94.10
1716;DHT22;855;48.824;9.220;2024-03-17T07:13:30;9.20;94.10
1716;DHT22;855;48.824;9.220;2024-03-17T07:15:57;9.30;94.20
1716;DHT22;855;48.824;9.220;2024-03-17T07:18:25;9.40;94.40
1716;DHT22;855;48.824;9.220;2024-03-17T07:20:52;9.60;94.50
1716;DHT22;855;48.824;9.220;2024-03-17T07:23:19;9.80;94.50
1716;DHT22;855;48.824;9.220;2024-03-17T07:25:53;9.90;94.00
1716;DHT22;855;48.824;9.220;2024-03-17T07:28:20;9.80;93.50
1716;DHT22;855;48.824;9.220;2024-03-17T07:30:49;9.80;94.00
1716;DHT22;855;48.824;9.220;2024-03-17T07:33:16;9.80;94.10
1716;DHT22;855;48.824;9.220;2024-03-17T07:35:50;9.80;93.80
1716;DHT22;855;48.824;9.220;2024-03-17T07:38:18;9.90;94.10
1716;DHT22;855;48.824;9.220;2024-03-17T07:40:54;10.00;94.10
1716;DHT22;855;48.824;9.220;2024-03-17T07:43:21;10.00;93.90
1716;DHT22;855;48.824;9.220;2024-03-17T07:45:57;10.00;94.00
1716;DHT22;855;48.824;9.220;2024-03-17T07:48:23;10.20;93.80
1716;DHT22;855;48.824;9.220;2024-03-17T07:50:54;10.10;93.60
1716;DHT22;855;48.824;9.220;2024-03-17T07:53:20;10.20;93.80
1716;DHT22;855;48.824;9.220;2024-03-17T07:55:47;10.20;94.00
1716;DHT22;855;48.824;9.220;2024-03-17T07:58:23;10.40;94.00
1716;DHT22;855;48.824;9.220;2024-03-17T08:00:52;10.50;93.80
1716;DHT22;855;48.824;9.220;2024-03-17T08:03:19;10.40;93.30
1716;DHT22;855;48.824;9.220;2024-03-17T08:05:48;10.50;93.50
1716;DHT22;855;48.824;9.220;2024-03-17T08:08:15;10.60;93.30
1716;DHT22;855;48.824;9.220;2024-03-17T08:10:42;10.60;93.20
1716;DHT22;855;48.824;9.220;2024-03-17T08:13:09;10.70;93.30
1716;DHT22;855;48.824;9.220;2024-03-17T08:15:36;10.90;93.40
1716;DHT22;855;48.824;9.220;2024-03-17T08:18:04;11.10;92.90
1716;DHT22;855;48.824;9.220;2024-03-17T08:20:36;11.30;92.60
1716;DHT22;855;48.824;9.220;2024-03-17T08:23:03;11.50;92.30
1716;DHT22;855;48.824;9.220;2024-03-17T08:25:31;11.40;91.50
1716;DHT22;855;48.824;9.220;2024-03-17T08:27:58;11.60;91.10
1716;DHT22;855;48.824;9.220;2024-03-17T08:30:24;11.80;90.70
1716;DHT22;855;48.824;9.220;2024-03-17T08:32:51;11.90;90.10
1716;DHT22;855;48.824;9.220;2024-03-17T08:35:19;12.00;89.40
1716;DHT22;855;48.824;9.220;2024-03-17T08:37:46;12.10;89.50
1716;DHT22;855;48.824;9.220;2024-03-17T08:40:13;12.10;89.30
1716;DHT22;855;48.824;9.220;2024-03-17T08:42:40;12.30;89.10
1716;DHT22;855;48.824;9.220;2024-03-17T08:45:08;12.30;88.90
1716;DHT22;855;48.824;9.220;2024-03-17T08:47:36;12.30;88.50
1716;DHT22;855;48.824;9.220;2024-03-17T08:50:04;12.30;88.60
1716;DHT22;855;48.824;9.220;2024-03-17T08:52:34;12.30;88.50
1716;DHT22;855;48.824;9.220;2024-03-17T08:55:01;12.40;88.70
1716;DHT22;855;48.824;9.220;2024-03-17T08:57:29;12.50;88.90
1716;DHT22;855;48.824;9.220;2024-03-17T08:59:56;12.50;89.00
1716;DHT22;855;48.824;9.220;2024-03-17T09:02:23;12.60;89.00
1716;DHT22;855;48.824;9.220;2024-03-17T09:04:50;12.60;88.10
1716;DHT22;855;48.824;9.220;2024-03-17T09:07:17;12.60;88.30
1716;DHT22;855;48.824;9.220;2024-03-17T09:09:46;12.70;88.20
1716;DHT22;855;48.824;9.220;2024-03-17T09:12:13;12.80;87.40
1716;DHT22;855;48.824;9.220;2024-03-17T09:14:40;12.80;87.30
1716;DHT22;855;48.824;9.220;2024-03-17T09:17:07;13.00;86.70
1716;DHT22;855;48.824;9.220;2024-03-17T09:19:34;13.10;86.10
1716;DHT22;855;48.824;9.220;2024-03-17T09:22:01;13.30;85.20
1716;DHT22;855;48.824;9.220;2024-03-17T09:24:28;13.30;85.60
1716;DHT22;855;48.824;9.220;2024-03-17T09:26:56;13.40;85.80
1716;DHT22;855;48.824;9.220;2024-03-17T09:29:23;13.50;85.40
1716;DHT22;855;48.824;9.220;2024-03-17T09:31:50;13.50;85.40
1716;DHT22;855;48.824;9.220;2024-03-17T09:34:17;13.60;85.40
1716;DHT22;855;48.824;9.220;2024-03-17T09:36:44;13.70;84.80
1716;DHT22;855;48.824;9.220;2024-03-17T09:39:10;13.70;84.50
1716;DHT22;855;48.824;9.220;2024-03-17T09:41:40;13.80;84.10
1716;DHT22;855;48.824;9.220;2024-03-17T09:44:11;13.80;83.60
1716;DHT22;855;48.824;9.220;2024-03-17T09:46:39;13.90;83.70
1716;DHT22;855;48.824;9.220;2024-03-17T09:49:10;14.00;83.40
1716;DHT22;855;48.824;9.220;2024-03-17T09:51:41;14.10;83.00
1716;DHT22;855;48.824;9.220;2024-03-17T09:54:16;14.10;82.90
1716;DHT22;855;48.824;9.220;2024-03-17T09:56:43;14.20;82.40
1716;DHT22;855;48.824;9.220;2024-03-17T09:59:12;14.40;82.30
1716;DHT22;855;48.824;9.220;2024-03-17T10:01:39;14.50;82.10
1716;DHT22;855;48.824;9.220;2024-03-17T10:04:05;14.70;81.50
1716;DHT22;855;48.824;9.220;2024-03-17T10:06:44;14.80;80.80
1716;DHT22;855;48.824;9.220;2024-03-17T10:09:15;14.80;80.30
1716;DHT22;855;48.824;9.220;2024-03-17T10:11:47;14.90;80.10
1716;DHT22;855;48.824;9.220;2024-03-17T10:14:17;15.00;80.50
1716;DHT22;855;48.824;9.220;2024-03-17T10:16:44;14.90;79.90
1716;DHT22;855;48.824;9.220;2024-03-17T10:19:11;14.90;79.60
1716;DHT22;855;48.824;9.220;2024-03-17T10:21:39;15.10;79.50
1716;DHT22;855;48.824;9.220;2024-03-17T10:24:08;15.40;79.20
1716;DHT22;855;48.824;9.220;2024-03-17T10:26:41;15.30;77.60
1716;DHT22;855;48.824;9.220;2024-03-17T10:29:23;15.10;73.40
1716;DHT22;855;48.824;9.220;2024-03-17T10:31:52;15.00;73.00
1716;DHT22;855;48.824;9.220;2024-03-17T10:34:19;14.80;76.20
1716;DHT22;855;48.824;9.220;2024-03-17T10:36:46;15.00;78.70
1716;DHT22;855;48.824;9.220;2024-03-17T10:39:23;14.90;78.80
1716;DHT22;855;48.824;9.220;2024-03-17T10:41:56;15.10;79.50
1716;DHT22;855;48.824;9.220;2024-03-17T10:44:26;14.90;77.50
1716;DHT22;855;48.824;9.220;2024-03-17T10:46:54;14.80;77.90
1716;DHT22;855;48.824;9.220;2024-03-17T10:49:25;14.80;78.20
1716;DHT22;855;48.824;9.220;2024-03-17T10:51:57;15.10;78.00
1716;DHT22;855;48.824;9.220;2024-03-17T10:54:25;15.20;75.90
1716;DHT22;855;48.824;9.220;2024-03-17T10:56:55;15.30;75.90
1716;DHT22;855;48.824;9.220;2024-03-17T10:59:31;15.40;75.90
1716;DHT22;855;48.824;9.220;2024-03-17T11:02:02;15.70;74.60
1716;DHT22;855;48.824;9.220;2024-03-17T11:04:29;15.80;73.80
1716;DHT22;855;48.824;9.220;2024-03-17T11:06:57;15.90;73.50
1716;DHT22;855;48.824;9.220;2024-03-17T11:09:26;16.00;73.50
1716;DHT22;855;48.824;9.220;2024-03-17T11:11:53;16.00;71.70
1716;DHT22;855;48.824;9.220;2024-03-17T11:14:20;16.10;71.40
1716;DHT22;855;48.824;9.220;2024-03-17T11:16:49;15.80;71.60
1716;DHT22;855;48.824;9.220;2024-03-17T11:19:16;15.90;70.80
1716;DHT22;855;48.824;9.220;2024-03-17T11:21:44;15.90;70.80
1716;DHT22;855;48.824;9.220;2024-03-17T11:24:20;16.10;68.80
1716;DHT22;855;48.824;9.220;2024-03-17T11:26:47;16.00;68.00
1716;DHT22;855;48.824;9.220;2024-03-17T11:29:27;15.80;67.70
1716;DHT22;855;48.824;9.220;2024-03-17T11:31:56;15.80;66.80
1716;DHT22;855;48.824;9.220;2024-03-17T11:34:33;15.80;66.30
1716;DHT22;855;48.824;9.220;2024-03-17T11:37:01;15.80;66.10
1716;DHT22;855;48.824;9.220;2024-03-17T11:39:48;15.70;66.10
1716;DHT22;855;48.824;9.220;2024-03-17T11:42:17;15.60;65.70
1716;DHT22;855;48.824;9.220;2024-03-17T11:44:53;15.70;66.90
1716;DHT22;855;48.824;9.220;2024-03-17T11:47:21;15.70;66.10
1716;DHT22;855;48.824;9.220;2024-03-17T11:49:47;15.70;65.50
1716;DHT22;855;48.824;9.220;2024-03-17T11:52:16;15.80;64.90
1716;DHT22;855;48.824;9.220;2024-03-17T11:54:43;15.80;64.70
1716;DHT22;855;48.824;9.220;2024-03-17T11:57:11;15.80;63.60
1716;DHT22;855;48.824;9.220;2024-03-17T11:59:38;15.80;63.50
1716;DHT22;855;48.824;9.220;2024-03-17T12:02:10;15.90;63.50
1716;DHT22;855;48.824;9.220;2024-03-17T12:04:43;15.90;64.50
1716;DHT22;855;48.824;9.220;2024-03-17T12:07:12;16.10;63.80
1716;DHT22;855;48.824;9.220;2024-03-17T12:09:39;16.30;64.70
1716;DHT22;855;48.824;9.220;2024-03-17T12:12:09;16.30;62.80
1716;DHT22;855;48.824;9.220;2024-03-17T12:14:36;16.40;62.30
1716;DHT22;855;48.824;9.220;2024-03-17T12:17:04;16.50;62.20
1716;DHT22;855;48.824;9.220;2024-03-17T12:19:30;16.60;61.60
1716;DHT22;855;48.824;9.220;2024-03-17T12:22:02;16.50;61.60
1716;DHT22;855;48.824;9.220;2024-03-17T12:24:29;16.40;61.50
1716;DHT22;855;48.824;9.220;2024-03-17T12:26:57;16.60;60.80
1716;DHT22;855;48.824;9.220;2024-03-17T12:29:27;16.50;60.60
1716;DHT22;855;48.824;9.220;2024-03-17T12:31:56;16.60;60.60
1716;DHT22;855;48.824;9.220;2024-03-17T12:34:24;16.80;60.30
1716;DHT22;855;48.824;9.220;2024-03-17T12:36:52;16.70;60.60
1716;DHT22;855;48.824;9.220;2024-03-17T12:39:21;16.70;61.40
1716;DHT22;855;48.824;9.220;2024-03-17T12:42:04;16.60;60.60
1716;DHT22;855;48.824;9.220;2024-03-17T12:44:31;16.60;61.20
1716;DHT22;855;48.824;9.220;2024-03-17T12:47:00;16.70;61.10
1716;DHT22;855;48.824;9.220;2024-03-17T12:49:26;16.90;60.20
1716;DHT22;855;48.824;9.220;2024-03-17T12:51:53;16.80;59.70
1716;DHT22;855;48.824;9.220;2024-03-17T12:54:23;16.90;59.80
1716;DHT22;855;48.824;9.220;2024-03-17T12:56:50;16.80;60.10
1716;DHT22;855;48.824;9.220;2024-03-17T12:59:42;16.70;60.10
1716;DHT22;855;48.824;9.220;2024-03-17T13:02:26;16.90;59.80
1716;DHT22;855;48.824;9.220;2024-03-17T13:05:16;17.00;59.80
1716;DHT22;855;48.824;9.220;2024-03-17T13:07:44;17.10;59.40
1716;DHT22;855;48.824;9.220;2024-03-17T13:10:14;17.20;59.40
1716;DHT22;855;48.824;9.220;2024-03-17T13:12:41;17.10;58.70
1716;DHT22;855;48.824;9.220;2024-03-17T13:15:12;17.20;58.90
1716;DHT22;855;48.824;9.220;2024-03-17T13:17:40;16.90;59.20
1716;DHT22;855;48.824;9.220;2024-03-17T13:20:12;16.90;59.70
1716;DHT22;855;48.824;9.220;2024-03-17T13:22:40;16.80;60.30
1716;DHT22;855;48.824;9.220;2024-03-17T13:25:16;16.80;59.90
1716;DHT22;855;48.824;9.220;2024-03-17T13:27:43;16.90;59.70
1716;DHT22;855;48.824;9.220;2024-03-17T13:30:11;17.10;59.30
1716;DHT22;855;48.824;9.220;2024-03-17T13:32:39;17.10;58.90
1716;DHT22;855;48.824;9.220;2024-03-17T13:35:14;17.30;59.20
1716;DHT22;855;48.824;9.220;2024-03-17T13:37:41;17.30;58.80
1716;DHT22;855;48.824;9.220;2024-03-17T13:40:09;17.20;58.00
1716;DHT22;855;48.824;9.220;2024-03-17T13:42:39;17.10;59.00
1716;DHT22;855;48.824;9.220;2024-03-17T13:45:10;17.10;58.70
1716;DHT22;855;48.824;9.220;2024-03-17T13:47:37;17.00;58.40
1716;DHT22;855;48.824;9.220;2024-03-17T13:50:05;17.10;59.20
1716;DHT22;855;48.824;9.220;2024-03-17T13:52:36;17.40;59.20
1716;DHT22;855;48.824;9.220;2024-03-17T13:55:04;17.50;59.90
1716;DHT22;855;48.824;9.220;2024-03-17T13:57:32;17.70;57.80
1716;DHT22;855;48.824;9.220;2024-03-17T14:00:00;17.80;56.80
1716;DHT22;855;48.824;9.220;2024-03-17T14:02:28;17.70;57.30
1716;DHT22;855;48.824;9.220;2024-03-17T14:04:55;17.80;56.70
1716;DHT22;855;48.824;9.220;2024-03-17T14:07:21;17.70;56.70
1716;DHT22;855;48.824;9.220;2024-03-17T14:09:48;17.80;57.40
1716;DHT22;855;48.824;9.220;2024-03-17T14:12:15;17.80;56.30
1716;DHT22;855;48.824;9.220;2024-03-17T14:14:42;17.50;56.40
1716;DHT22;855;48.824;9.220;2024-03-17T14:17:10;17.30;58.00
1716;DHT22;855;48.824;9.220;2024-03-17T14:19:37;17.30;57.90
1716;DHT22;855;48.824;9.220;2024-03-17T14:22:04;17.30;57.50
1716;DHT22;855;48.824;9.220;2024-03-17T14:24:31;17.50;58.00
1716;DHT22;855;48.824;9.220;2024-03-17T14:27:00;17.50;57.30
1716;DHT22;855;48.824;9.220;2024-03-17T14:29:27;17.50;57.80
1716;DHT22;855;48.824;9.220;2024-03-17T14:31:54;17.50;57.50
1716;DHT22;855;48.824;9.220;2024-03-17T14:34:22;17.20;57.70
1716;DHT22;855;48.824;9.220;2024-03-17T14:36:49;16.70;59.00
1716;DHT22;855;48.824;9.220;2024-03-17T14:39:15;16.70;59.80
1716;DHT22;855;48.824;9.220;2024-03-17T14:41:42;16.80;60.10
1716;DHT22;855;48.824;9.220;2024-03-17T14:44:09;16.80;59.30
1716;DHT22;855;48.824;9.220;2024-03-17T14:46:36;16.80;59.30
1716;DHT22;855;48.824;9.220;2024-03-17T14:49:03;17.10;58.90
1716;DHT22;855;48.824;9.220;2024-03-17T14:51:32;17.10;58.70
1716;DHT22;855;48.824;9.220;2024-03-17T14:53:58;16.90;58.90
1716;DHT22;855;48.824;9.220;2024-03-17T14:56:26;17.00;59.50
1716;DHT22;855;48.824;9.220;2024-03-17T14:58:53;16.90;59.50
1716;DHT22;855;48.824;9.220;2024-03-17T15:01:20;17.00;59.30
1716;DHT22;855;48.824;9.220;2024-03-17T15:03:47;16.90;59.50
1716;DHT22;855;48.824;9.220;2024-03-17T15:06:14;16.90;59.70
1716;DHT22;855;48.824;9.220;2024-03-17T15:08:45;17.00;59.40
1716;DHT22;855;48.824;9.220;2024-03-17T15:11:12;17.10;59.00
1716;DHT22;855;48.824;9.220;2024-03-17T15:13:38;17.00;59.40
1716;DHT22;855;48.824;9.220;2024-03-17T15:16:08;17.00;59.70
1716;DHT22;855;48.824;9.220;2024-03-17T15:18:35;17.00;59.70
1716;DHT22;855;48.824;9.220;2024-03-17T15:21:03;17.00;59.20
1716;DHT22;855;48.824;9.220;2024-03-17T15:23:31;17.00;59.70
1716;DHT22;855;48.824;9.220;2024-03-17T15:26:02;17.00;59.90
1716;DHT22;855;48.824;9.220;2024-03-17T15:28:34;17.10;58.70
1716;DHT22;855;48.824;9.220;2024-03-17T15:31:03;17.10;59.20
1716;DHT22;855;48.824;9.220;2024-03-17T15:33:30;17.00;59.40
1716;DHT22;855;48.824;9.220;2024-03-17T15:36:00;16.90;59.90
1716;DHT22;855;48.824;9.220;2024-03-17T15:38:27;16.90;59.80
1716;DHT22;855;48.824;9.220;2024-03-17T15:40:54;16.90;59.50
1716;DHT22;855;48.824;9.220;2024-03-17T15:43:22;16.80;59.50
1716;DHT22;855;48.824;9.220;2024-03-17T15:45:49;16.80;59.70
1716;DHT22;855;48.824;9.220;2024-03-17T15:48:15;16.90;59.80
1716;DHT22;855;48.824;9.220;2024-03-17T15:50:42;16.70;59.50
1716;DHT22;855;48.824;9.220;2024-03-17T15:53:09;16.70;59.80
1716;DHT22;855;48.824;9.220;2024-03-17T15:55:37;16.50;60.20
1716;DHT22;855;48.824;9.220;2024-03-17T15:58:04;16.50;60.80
1716;DHT22;855;48.824;9.220;2024-03-17T16:00:33;16.30;61.00
1716;DHT22;855;48.824;9.220;2024-03-17T16:03:01;16.40;61.50
1716;DHT22;855;48.824;9.220;2024-03-17T16:05:28;16.30;61.20
1716;DHT22;855;48.824;9.220;2024-03-17T16:07:55;16.10;61.10
1716;DHT22;855;48.824;9.220;2024-03-17T16:10:23;16.00;62.60
1716;DHT22;855;48.824;9.220;2024-03-17T16:12:50;16.10;62.30
1716;DHT22;855;48.824;9.220;2024-03-17T16:15:17;16.30;61.80
1716;DHT22;855;48.824;9.220;2024-03-17T16:17:47;16.20;61.90
1716;DHT22;855;48.824;9.220;2024-03-17T16:20:36;16.20;62.30
1716;DHT22;855;48.824;9.220;2024-03-17T16:23:10;16.20;62.30
1716;DHT22;855;48.824;9.220;2024-03-17T16:25:37;16.00;62.70
1716;DHT22;855;48.824;9.220;2024-03-17T16:28:04;15.70;63.40
1716;DHT22;855;48.824;9.220;2024-03-17T16:30:31;15.40;64.40